createdAt,value
2022-09-16T00:02:40.129Z,64.50
2022-09-16T00:05:49.557Z,64.60
2022-09-16T00:08:58.180Z,64.50
2022-09-16T00:12:06.002Z,64.40
2022-09-16T00:15:23.499Z,64.40
2022-09-16T00:18:38.692Z,64.50
2022-09-16T00:21:48.223Z,64.60
2022-09-16T00:24:59.862Z,64.60
2022-09-16T00:28:09.179Z,64.60
2022-09-16T00:31:23.178Z,64.60
2022-09-16T00:34:33.659Z,64.70
2022-09-16T00:37:39.233Z,64.60
2022-09-16T00:40:51.375Z,64.60
2022-09-16T00:43:59.814Z,64.60
2022-09-16T00:47:07.460Z,64.60
2022-09-16T00:50:19.739Z,64.50
2022-09-16T00:53:31.163Z,64.50
2022-09-16T00:56:41.671Z,64.60
2022-09-16T00:59:54.253Z,64.50
2022-09-16T01:03:00.059Z,64.60
2022-09-16T01:06:11.773Z,64.60
2022-09-16T01:09:17.491Z,64.50
2022-09-16T01:12:25.004Z,64.50
2022-09-16T01:15:34.932Z,64.50
2022-09-16T01:18:51.975Z,64.50
2022-09-16T01:22:15.132Z,64.50
2022-09-16T01:25:38.253Z,64.50
2022-09-16T01:29:10.672Z,64.60
2022-09-16T01:32:31.567Z,64.50
2022-09-16T01:35:48.417Z,64.40
2022-09-16T01:39:10.127Z,64.40
2022-09-16T01:42:25.182Z,64.20
2022-09-16T01:45:41.004Z,64.10
2022-09-16T01:48:59.151Z,64.00
2022-09-16T01:52:18.818Z,63.70
2022-09-16T01:55:28.361Z,63.80
2022-09-16T01:58:41.353Z,63.90
2022-09-16T02:01:52.876Z,63.70
2022-09-16T02:05:08.277Z,63.90
2022-09-16T02:08:17.031Z,64.00
2022-09-16T02:11:25.207Z,64.00
2022-09-16T02:14:33.074Z,64.00
2022-09-16T02:17:42.752Z,64.10
2022-09-16T02:20:52.385Z,64.10
2022-09-16T02:24:02.796Z,64.20
2022-09-16T02:27:12.474Z,64.20
2022-09-16T02:30:23.177Z,64.20
2022-09-16T02:33:36.714Z,64.20
2022-09-16T02:36:52.430Z,64.10
2022-09-16T02:40:02.507Z,64.20
2022-09-16T02:43:10.435Z,64.10
2022-09-16T02:46:25.757Z,64.10
2022-09-16T02:49:44.380Z,64.10
2022-09-16T02:53:00.459Z,64.10
2022-09-16T02:56:14.633Z,64.10
2022-09-16T02:59:21.072Z,64.30
2022-09-16T03:02:29.293Z,64.10
2022-09-16T03:05:34.830Z,64.10
2022-09-16T03:08:47.471Z,64.20
2022-09-16T03:12:19.015Z,64.30
2022-09-16T03:15:39.477Z,64.20
2022-09-16T03:18:59.701Z,64.10
2022-09-16T03:22:18.187Z,64.10
2022-09-16T03:25:42.542Z,64.10
2022-09-16T03:28:56.087Z,64.20
2022-09-16T03:32:06.597Z,64.20
2022-09-16T03:35:20.336Z,64.10
2022-09-16T03:38:26.346Z,64.10
2022-09-16T03:41:37.966Z,64.00
2022-09-16T03:44:44.316Z,64.00
2022-09-16T03:47:53.694Z,64.00
2022-09-16T03:50:59.046Z,64.00
2022-09-16T03:54:06.522Z,64.00
2022-09-16T03:57:15.207Z,64.00
2022-09-16T04:00:23.394Z,64.10
2022-09-16T04:03:33.153Z,64.10
2022-09-16T04:06:41.142Z,64.00
2022-09-16T04:09:46.995Z,64.10
2022-09-16T04:13:00.531Z,64.10
2022-09-16T04:16:07.750Z,64.00
2022-09-16T04:19:16.367Z,64.00
2022-09-16T04:22:21.729Z,64.00
2022-09-16T04:25:29.204Z,64.00
2022-09-16T04:28:37.889Z,63.90
2022-09-16T04:31:45.633Z,64.00
2022-09-16T04:34:51.127Z,64.00
2022-09-16T04:37:59.024Z,63.90
2022-09-16T04:41:05.666Z,63.90
2022-09-16T04:44:15.886Z,63.90
2022-09-16T04:47:21.310Z,63.90
2022-09-16T04:50:28.990Z,63.90
2022-09-16T04:53:34.509Z,64.00
2022-09-16T04:56:42.163Z,64.00
2022-09-16T04:59:50.683Z,64.00
2022-09-16T05:02:59.727Z,64.00
2022-09-16T05:06:09.922Z,63.90
2022-09-16T05:09:17.859Z,63.90
2022-09-16T05:12:23.249Z,63.90
2022-09-16T05:15:33.479Z,63.90
2022-09-16T05:18:39.532Z,63.80
2022-09-16T05:21:46.934Z,63.80
2022-09-16T05:24:52.681Z,63.80
2022-09-16T05:28:01.639Z,63.80
2022-09-16T05:31:18.915Z,63.70
2022-09-16T05:34:28.878Z,63.70
2022-09-16T05:37:34.292Z,63.60
2022-09-16T05:40:41.749Z,63.50
2022-09-16T05:43:47.192Z,63.40
2022-09-16T05:46:57.987Z,63.40
2022-09-16T05:50:03.345Z,63.40
2022-09-16T05:53:10.781Z,63.40
2022-09-16T05:56:18.432Z,63.40
2022-09-16T05:59:26.890Z,63.30
2022-09-16T06:02:35.096Z,63.30
2022-09-16T06:05:45.774Z,63.30
2022-09-16T06:08:51.435Z,63.20
2022-09-16T06:12:02.119Z,63.20
2022-09-16T06:15:08.492Z,63.20
2022-09-16T06:18:19.446Z,63.20
2022-09-16T06:21:25.471Z,63.20
2022-09-16T06:24:32.901Z,63.30
2022-09-16T06:27:38.544Z,63.30
2022-09-16T06:30:46.056Z,63.30
2022-09-16T06:33:55.079Z,63.40
2022-09-16T06:37:02.762Z,63.40
2022-09-16T06:40:09.264Z,63.40
2022-09-16T06:43:19.497Z,63.30
2022-09-16T06:46:26.991Z,63.20
2022-09-16T06:49:37.715Z,63.00
2022-09-16T06:52:43.080Z,63.20
2022-09-16T06:55:50.619Z,62.90
2022-09-16T06:58:56.406Z,62.70
2022-09-16T07:02:05.294Z,63.40
2022-09-16T07:05:13.966Z,63.20
2022-09-16T07:08:21.490Z,62.90
2022-09-16T07:11:27.941Z,62.70
2022-09-16T07:14:35.582Z,63.00
2022-09-16T07:17:41.108Z,63.30
2022-09-16T07:20:51.270Z,63.60
2022-09-16T07:23:58.853Z,63.70
2022-09-16T07:27:06.302Z,64.00
2022-09-16T07:30:12.995Z,64.00
2022-09-16T07:33:20.854Z,64.00
2022-09-16T07:36:31.636Z,64.20
2022-09-16T07:39:39.295Z,64.20
2022-09-16T07:42:45.274Z,64.40
2022-09-16T07:45:59.630Z,64.50
2022-09-16T07:49:06.928Z,64.40
2022-09-16T07:52:18.902Z,64.30
2022-09-16T07:55:24.363Z,64.30
2022-09-16T07:58:31.871Z,64.50
2022-09-16T08:01:43.242Z,64.50
2022-09-16T08:04:50.944Z,64.60
2022-09-16T08:07:59.210Z,64.50
2022-09-16T08:11:07.263Z,63.40
2022-09-16T08:14:13.096Z,63.40
2022-09-16T08:17:20.524Z,63.80
2022-09-16T08:20:26.412Z,63.80
2022-09-16T08:23:36.569Z,63.70
2022-09-16T08:26:42.078Z,63.60
2022-09-16T08:29:49.670Z,63.50
2022-09-16T08:32:59.730Z,63.50
2022-09-16T08:36:09.931Z,63.50
2022-09-16T08:39:18.262Z,63.40
2022-09-16T08:42:37.847Z,63.40
2022-09-16T08:45:52.591Z,63.30
2022-09-16T08:49:03.775Z,63.20
2022-09-16T08:52:15.646Z,63.20
2022-09-16T08:55:32.002Z,63.20
2022-09-16T08:58:43.155Z,63.10
2022-09-16T09:01:54.851Z,63.00
2022-09-16T09:05:04.442Z,62.90
2022-09-16T09:08:25.786Z,62.90
2022-09-16T09:11:41.714Z,62.90
2022-09-16T09:15:11.653Z,62.80
2022-09-16T09:18:36.930Z,62.80
2022-09-16T09:21:52.694Z,62.80
2022-09-16T09:25:17.898Z,62.80
2022-09-16T09:28:51.051Z,62.70
2022-09-16T09:32:05.417Z,62.70
2022-09-16T09:35:32.731Z,62.70
2022-09-16T09:39:01.962Z,62.70
2022-09-16T09:42:18.895Z,62.70
2022-09-16T09:45:31.822Z,62.70
2022-09-16T09:48:47.546Z,62.70
2022-09-16T09:52:00.428Z,62.60
2022-09-16T09:55:18.721Z,63.00
2022-09-16T09:58:30.254Z,63.10
2022-09-16T10:01:40.531Z,62.90
2022-09-16T10:04:46.404Z,62.90
2022-09-16T10:07:56.254Z,62.60
2022-09-16T10:11:04.439Z,62.50
2022-09-16T10:14:26.905Z,62.60
2022-09-16T10:17:36.510Z,62.60
2022-09-16T10:20:46.994Z,62.60
2022-09-16T10:23:58.774Z,62.50
2022-09-16T10:27:22.788Z,62.50
2022-09-16T10:30:28.360Z,62.50
2022-09-16T10:33:46.136Z,62.30
2022-09-16T10:37:03.166Z,62.30
2022-09-16T10:40:20.526Z,62.20
2022-09-16T10:43:27.706Z,62.20
2022-09-16T10:46:35.844Z,62.40
2022-09-16T10:49:49.459Z,62.40
2022-09-16T10:52:57.598Z,62.30
2022-09-16T10:56:05.237Z,62.40
2022-09-16T10:59:14.414Z,62.30
2022-09-16T11:02:40.069Z,62.10
2022-09-16T11:06:02.729Z,62.20
2022-09-16T11:09:17.896Z,62.10
2022-09-16T11:12:51.625Z,62.10
2022-09-16T11:16:10.515Z,62.10
2022-09-16T11:19:25.260Z,62.20
2022-09-16T11:22:42.306Z,62.70
2022-09-16T11:25:57.698Z,63.20
2022-09-16T11:29:22.233Z,63.60
2022-09-16T11:32:47.021Z,63.50
2022-09-16T11:36:27.301Z,63.50
2022-09-16T11:39:49.858Z,63.40
2022-09-16T11:43:02.721Z,63.60
2022-09-16T11:46:19.445Z,63.50
2022-09-16T11:49:42.769Z,63.40
2022-09-16T11:53:14.727Z,63.50
2022-09-16T11:56:35.374Z,63.90
2022-09-16T11:59:51.989Z,63.50
2022-09-16T12:03:05.085Z,63.30
2022-09-16T12:06:18.031Z,63.30
2022-09-16T12:09:30.156Z,63.20
2022-09-16T12:12:45.340Z,63.30
2022-09-16T12:15:54.054Z,63.30
2022-09-16T12:19:05.454Z,63.10
2022-09-16T12:22:17.439Z,63.00
2022-09-16T12:25:30.257Z,62.90
2022-09-16T12:28:46.643Z,62.90
2022-09-16T12:31:59.665Z,63.00
2022-09-16T12:35:08.566Z,62.80
2022-09-16T12:38:23.087Z,62.80
2022-09-16T12:41:50.078Z,62.80
2022-09-16T12:45:22.237Z,62.80
2022-09-16T12:48:50.166Z,62.80
2022-09-16T12:52:13.542Z,62.80
2022-09-16T12:55:55.184Z,62.80
2022-09-16T12:59:29.825Z,62.80
2022-09-16T13:02:42.997Z,62.70
2022-09-16T13:05:57.385Z,62.60
2022-09-16T13:09:19.544Z,62.50
2022-09-16T13:12:43.991Z,62.50
2022-09-16T13:15:59.420Z,62.50
2022-09-16T13:19:41.838Z,62.40
2022-09-16T13:22:50.762Z,62.40
2022-09-16T13:26:03.890Z,62.30
2022-09-16T13:29:28.245Z,62.20
2022-09-16T13:32:43.763Z,62.10
2022-09-16T13:35:53.520Z,62.00
2022-09-16T13:39:02.529Z,62.20
2022-09-16T13:42:20.828Z,62.20
2022-09-16T13:45:40.124Z,62.10
2022-09-16T13:48:49.523Z,61.70
2022-09-16T13:52:00.806Z,61.50
2022-09-16T13:55:21.304Z,61.40
2022-09-16T13:58:36.279Z,61.30
2022-09-16T14:01:59.413Z,61.00
2022-09-16T14:05:24.062Z,60.70
2022-09-16T14:08:42.159Z,61.10
2022-09-16T14:11:59.717Z,61.30
2022-09-16T14:15:06.268Z,61.30
2022-09-16T14:18:18.128Z,61.00
2022-09-16T14:21:27.268Z,60.90
2022-09-16T14:24:41.732Z,60.80
2022-09-16T14:27:49.048Z,60.50
2022-09-16T14:30:59.091Z,60.60
2022-09-16T14:34:11.465Z,60.60
2022-09-16T14:37:43.616Z,60.40
2022-09-16T14:40:52.350Z,60.30
2022-09-16T14:44:05.981Z,60.20
2022-09-16T14:47:32.330Z,60.30
2022-09-16T14:50:52.894Z,60.20
2022-09-16T14:54:19.225Z,60.40
2022-09-16T14:57:50.255Z,60.20
2022-09-16T15:00:59.298Z,60.20
2022-09-16T15:04:09.901Z,60.50
2022-09-16T15:07:24.562Z,60.30
2022-09-16T15:10:50.058Z,60.30
2022-09-16T15:14:00.841Z,59.80
2022-09-16T15:17:08.664Z,59.60
2022-09-16T15:20:23.937Z,59.40
2022-09-16T15:23:32.494Z,59.20
2022-09-16T15:26:45.096Z,59.10
2022-09-16T15:30:01.027Z,59.00
2022-09-16T15:33:06.707Z,59.00
2022-09-16T15:36:36.205Z,59.00
2022-09-16T15:39:45.080Z,59.00
2022-09-16T15:43:05.804Z,58.90
2022-09-16T15:46:22.347Z,59.50
2022-09-16T15:49:41.527Z,59.80
2022-09-16T15:52:57.415Z,59.90
2022-09-16T15:56:10.486Z,59.70
2022-09-16T15:59:29.406Z,59.60
2022-09-16T16:02:44.512Z,59.30
2022-09-16T16:05:54.971Z,59.40
2022-09-16T16:09:05.552Z,59.60
2022-09-16T16:12:14.136Z,59.50
2022-09-16T16:15:25.515Z,59.60
2022-09-16T16:18:35.457Z,59.60
2022-09-16T16:21:46.590Z,59.60
2022-09-16T16:24:52.010Z,59.80
2022-09-16T16:27:59.448Z,59.90
2022-09-16T16:31:17.169Z,60.20
2022-09-16T16:34:30.130Z,60.60
2022-09-16T16:37:50.939Z,61.00
2022-09-16T16:41:00.526Z,61.00
2022-09-16T16:44:06.162Z,61.10
2022-09-16T16:47:17.321Z,61.30
2022-09-16T16:50:25.514Z,61.30
2022-09-16T16:53:38.248Z,61.40
2022-09-16T16:56:43.887Z,61.50
2022-09-16T16:59:52.209Z,61.60
2022-09-16T17:02:57.727Z,61.60
2022-09-16T17:06:08.817Z,61.80
2022-09-16T17:09:16.160Z,61.60
2022-09-16T17:12:23.837Z,61.70
2022-09-16T17:15:29.290Z,61.80
2022-09-16T17:18:37.491Z,61.80
2022-09-16T17:21:46.040Z,61.90
2022-09-16T17:24:57.847Z,61.80
2022-09-16T17:28:03.207Z,61.80
2022-09-16T17:31:13.400Z,61.70
2022-09-16T17:34:19.769Z,61.80
2022-09-16T17:37:33.560Z,61.70
2022-09-16T17:40:42.051Z,61.70
2022-09-16T17:43:49.763Z,61.80
2022-09-16T17:46:56.109Z,61.80
2022-09-16T17:50:05.779Z,61.80
2022-09-16T17:53:14.081Z,62.00
2022-09-16T17:56:21.782Z,62.00
2022-09-16T17:59:27.719Z,62.00
2022-09-16T18:02:35.546Z,62.00
2022-09-16T18:05:41.891Z,62.00
2022-09-16T18:08:52.897Z,62.00
2022-09-16T18:12:01.133Z,62.00
2022-09-16T18:15:10.359Z,62.00
2022-09-16T18:18:17.816Z,62.00
2022-09-16T18:21:26.338Z,61.90
2022-09-16T18:24:38.784Z,61.90
2022-09-16T18:27:47.919Z,62.00
2022-09-16T18:31:05.023Z,61.90
2022-09-16T18:34:13.317Z,61.90
2022-09-16T18:37:19.266Z,61.90
2022-09-16T18:40:35.147Z,61.90
2022-09-16T18:43:47.396Z,61.80
2022-09-16T18:46:56.398Z,61.80
2022-09-16T18:50:01.846Z,61.70
2022-09-16T18:53:09.456Z,61.70
2022-09-16T18:56:23.792Z,61.70
2022-09-16T18:59:37.462Z,61.60
2022-09-16T19:02:44.147Z,61.60
2022-09-16T19:05:58.139Z,61.70
2022-09-16T19:09:05.846Z,61.60
2022-09-16T19:12:17.269Z,61.60
2022-09-16T19:15:24.914Z,61.60
2022-09-16T19:18:32.922Z,61.60
2022-09-16T19:21:38.809Z,61.60
2022-09-16T19:24:49.006Z,61.60
2022-09-16T19:27:59.363Z,61.60
2022-09-16T19:31:07.743Z,61.50
2022-09-16T19:34:15.552Z,61.60
2022-09-16T19:37:31.476Z,61.50
2022-09-16T19:40:44.145Z,61.60
2022-09-16T19:44:03.275Z,61.50
2022-09-16T19:47:10.369Z,61.60
2022-09-16T19:50:18.000Z,61.70
2022-09-16T19:53:33.775Z,61.60
2022-09-16T19:56:49.496Z,61.60
2022-09-16T19:59:59.431Z,61.60
2022-09-16T20:03:13.139Z,61.60
2022-09-16T20:06:21.789Z,61.60
2022-09-16T20:09:29.599Z,61.50
2022-09-16T20:12:35.398Z,61.60
2022-09-16T20:15:46.236Z,61.40
2022-09-16T20:18:52.131Z,61.30
2022-09-16T20:22:00.188Z,61.30
2022-09-16T20:25:21.807Z,61.20
2022-09-16T20:28:33.441Z,61.20
2022-09-16T20:31:42.540Z,61.10
2022-09-16T20:34:50.499Z,61.10
2022-09-16T20:37:56.331Z,61.10
2022-09-16T20:41:08.146Z,61.10
2022-09-16T20:44:16.178Z,61.10
2022-09-16T20:47:29.432Z,61.10
2022-09-16T20:50:34.891Z,61.10
2022-09-16T20:53:43.210Z,61.20
2022-09-16T20:56:50.380Z,61.20
2022-09-16T20:59:57.990Z,61.20
2022-09-16T21:03:07.753Z,61.10
2022-09-16T21:06:17.775Z,61.20
2022-09-16T21:09:23.512Z,61.20
2022-09-16T21:12:33.014Z,61.10
2022-09-16T21:15:39.030Z,61.00
2022-09-16T21:18:53.169Z,61.00
2022-09-16T21:21:58.807Z,61.00
2022-09-16T21:25:06.884Z,60.90
2022-09-16T21:28:15.180Z,60.90
2022-09-16T21:31:28.585Z,60.90
2022-09-16T21:34:37.101Z,60.90
2022-09-16T21:37:44.599Z,60.90
2022-09-16T21:40:57.283Z,60.80
2022-09-16T21:44:05.395Z,60.80
2022-09-16T21:47:11.844Z,60.80
2022-09-16T21:50:22.202Z,60.70
2022-09-16T21:53:37.538Z,60.60
2022-09-16T21:56:45.556Z,60.60
2022-09-16T21:59:51.203Z,60.50
2022-09-16T22:03:00.585Z,60.40
2022-09-16T22:06:12.028Z,60.40
2022-09-16T22:09:19.738Z,60.40
2022-09-16T22:12:27.463Z,60.30
2022-09-16T22:15:35.227Z,60.30
2022-09-16T22:18:42.719Z,60.20
2022-09-16T22:21:54.592Z,60.20
2022-09-16T22:25:00.499Z,60.30
2022-09-16T22:28:08.454Z,60.20
2022-09-16T22:31:15.957Z,60.20
2022-09-16T22:34:23.822Z,60.10
2022-09-16T22:37:32.374Z,60.20
2022-09-16T22:40:40.053Z,60.10
2022-09-16T22:43:51.791Z,60.00
2022-09-16T22:46:59.604Z,60.00
2022-09-16T22:50:06.419Z,60.00
2022-09-16T22:53:16.575Z,60.00
2022-09-16T22:56:24.526Z,59.90
2022-09-16T22:59:32.087Z,59.90
2022-09-16T23:02:37.762Z,60.00
2022-09-16T23:05:58.732Z,60.00
2022-09-16T23:09:10.785Z,60.00
2022-09-16T23:12:20.218Z,60.00
2022-09-16T23:15:29.763Z,60.00
2022-09-16T23:18:38.206Z,59.90
2022-09-16T23:21:49.600Z,59.90
2022-09-16T23:24:59.868Z,59.80
2022-09-16T23:28:09.355Z,59.70
2022-09-16T23:31:19.860Z,59.60
2022-09-16T23:34:25.899Z,59.60
2022-09-16T23:37:33.781Z,59.50
2022-09-16T23:40:43.011Z,59.50
2022-09-16T23:43:51.535Z,59.50
2022-09-16T23:46:57.743Z,59.50
2022-09-16T23:50:05.571Z,59.40
2022-09-16T23:53:10.977Z,59.40
2022-09-16T23:56:27.200Z,59.40
2022-09-16T23:59:32.931Z,59.30
